Oyster, VA (23419)

8:14 PM EST on March 05, 2015 (GMT -0500)
Davis Wharf | Change Station
CLOSE
Current Station
Personal Weather Station
Location: Belle Haven, VA
Elevation: 0 ft
Nearby Weather Stations
Active Advisory: Winter Weather Advisory Active Notice: Public Information Statement

Elev 0 ft 37.55 °N, 75.88 °W | Updated 9 minutes ago

Rain
Rain
27.5 °F
Feels Like 20 °F
N
6.8
Wind Variable Wind from NNW

Today
High -- | Low -- °F
--% Chance of Precip.
Yesterday
High -- | Low -- °F
Precip. -- in
6:29 AM 6:01 PM
Full, 100% visible
Pressure 30.26 in
Visibility 3.0 miles
Clouds Overcast 900 ft
Windchill 20 °F
Dew Point 26 °F
Humidity 92%
Rainfall in
Snow Depth Not available.
UV 0 out of 12
Pollen 1.00 out of 12
Air Quality Not available.
Flu Activity Not available.
METAR KMFV 060055Z AUTO 34013G22KT 310V020 3SM -SN OVC009 M01/M03 A3026 RMK AO2

More Conditions Fewer Conditions

Pressure 30.26 in
Visibility 3.0 miles
Clouds Overcast 900 ft
Windchill 20 °F
Dew Point 26 °F
Humidity 92%
Rainfall in
Snow Depth Not available.
UV 0 out of 12
Pollen 1.00 out of 12
Air Quality Not available.
Flu Activity Not available.
METAR KMFV 060055Z AUTO 34013G22KT 310V020 3SM -SN OVC009 M01/M03 A3026 RMK AO2

More Conditions Fewer Conditions

10-Day Weather Forecast

Almanac

Astronomy

Mar. 05, 2015 Rise Set
Actual Time
Civil Twilight
Nautical Twilight
Astronomical Twilight
Moon
Length of Visible Light
Length of Day
Tomorrow will be .
, % of the Moon is Illuminated

Today's Extremes

State Highs State Lows

Community

WunderPhotos

Upload Photos

1,803,092 photos uploaded!

WunderBlogs® & News

Nearby

Air Quality

  Air Quality AQ Index Pollutant
Not available.

Snow Depth

Station Depth Elevation

Earthquake Activity

City Distance Mag. Time & Date
Minimum magnitude displayed is 2.5.

Coastal Water Temperatures

Place Temperature

Nearby Weather Stations

Winter Weather Advisory
Statement as of 7:33 PM EST on March 05, 2015

... Winter Weather Advisory remains in effect until midnight EST
tonight...

A Winter Weather Advisory remains in effect until midnight EST
tonight.

* Areas affected: south central and southeast Virginia including
the Tri-Cities and the peninsula.

* Hazards: snow and sleet.

* Timing: snow and sleet ending by 11 PM.

* Accumulation: less than one inch of snow and sleet.

* Temperatures: falling into the mid and upper 20s.

* Winds: north 15 to 20 mph with gusts to 25 mph.

* Impacts: roads may become sleet and snow covered this evening
making travel dangerous.

Precautionary/preparedness actions...

A Winter Weather Advisory means that periods of snow... sleet... or
freezing rain will cause travel difficulties. Be prepared for
slippery roads and limited visibility... and use caution while
driving.